createdAt,value
2018-02-27T00:00:09.632Z,1020.06
2018-02-27T00:01:09.601Z,1020.04
2018-02-27T00:02:09.570Z,1020.02
2018-02-27T00:03:09.541Z,1020.02
2018-02-27T00:04:09.511Z,1020.00
2018-02-27T00:05:09.481Z,1020.04
2018-02-27T00:06:09.449Z,1020.03
2018-02-27T00:07:09.479Z,1020.03
2018-02-27T00:08:09.388Z,1020.06
2018-02-27T00:09:09.359Z,1020.04
2018-02-27T00:10:09.347Z,1020.08
2018-02-27T00:11:09.298Z,1020.05
2018-02-27T00:12:09.268Z,1020.04
2018-02-27T00:13:09.248Z,1020.04
2018-02-27T00:14:09.208Z,1020.05
2018-02-27T00:15:09.181Z,1020.02
2018-02-27T00:16:09.158Z,1020.03
2018-02-27T00:17:09.122Z,1020.02
2018-02-27T00:18:09.088Z,1020.03
2018-02-27T00:19:09.056Z,1020.07
2018-02-27T00:20:09.029Z,1020.06
2018-02-27T00:21:09.001Z,1020.07
2018-02-27T00:22:08.972Z,1020.06
2018-02-27T00:23:08.936Z,1020.05
2018-02-27T00:24:08.905Z,1020.08
2018-02-27T00:25:08.876Z,1020.00
2018-02-27T00:26:08.845Z,1020.02
2018-02-27T00:27:08.816Z,1020.02
2018-02-27T00:28:08.802Z,1020.04
2018-02-27T00:29:08.769Z,1019.99
2018-02-27T00:30:08.726Z,1020.02
2018-02-27T00:31:08.700Z,1019.97
2018-02-27T00:32:08.665Z,1019.99
2018-02-27T00:33:08.644Z,1019.98
2018-02-27T00:34:08.605Z,1019.96
2018-02-27T00:35:08.575Z,1019.96
2018-02-27T00:36:08.546Z,1019.96
2018-02-27T00:37:08.540Z,1019.96
2018-02-27T00:38:08.488Z,1019.98
2018-02-27T00:39:08.462Z,1019.95
2018-02-27T00:40:08.425Z,1019.96
2018-02-27T00:41:08.405Z,1019.95
2018-02-27T00:42:08.365Z,1019.95
2018-02-27T00:43:08.334Z,1019.96
2018-02-27T00:44:08.304Z,1019.92
2018-02-27T00:45:08.273Z,1019.94
2018-02-27T00:46:08.242Z,1019.91
2018-02-27T00:47:08.211Z,1019.92
2018-02-27T00:48:08.185Z,1019.90
2018-02-27T00:49:08.153Z,1019.94
2018-02-27T00:50:08.127Z,1019.87
2018-02-27T00:51:08.092Z,1019.90
2018-02-27T00:52:08.234Z,1019.89
2018-02-27T00:53:08.034Z,1019.90
2018-02-27T00:54:08.003Z,1019.90
2018-02-27T00:55:07.986Z,1019.85
2018-02-27T00:56:07.942Z,1019.84
2018-02-27T00:57:07.914Z,1019.85
2018-02-27T00:58:07.961Z,1019.85
2018-02-27T00:59:07.852Z,1019.87
2018-02-27T01:00:07.824Z,1019.85
2018-02-27T01:01:07.790Z,1019.84
2018-02-27T01:02:07.769Z,1019.79
2018-02-27T01:03:07.732Z,1019.77
2018-02-27T01:04:07.700Z,1019.79
2018-02-27T01:05:07.687Z,1019.77
2018-02-27T01:06:07.640Z,1019.76
2018-02-27T01:07:07.611Z,1019.74
2018-02-27T01:08:07.587Z,1019.75
2018-02-27T01:09:07.552Z,1019.71
2018-02-27T01:10:07.520Z,1019.73
2018-02-27T01:11:07.489Z,1019.74
2018-02-27T01:12:07.463Z,1019.75
2018-02-27T01:13:07.432Z,1019.70
2018-02-27T01:14:07.407Z,1019.73
2018-02-27T01:15:07.384Z,1019.69
2018-02-27T01:16:07.342Z,1019.74
2018-02-27T01:17:07.308Z,1019.71
2018-02-27T01:18:07.279Z,1019.69
2018-02-27T01:19:07.258Z,1019.70
2018-02-27T01:20:07.221Z,1019.74
2018-02-27T01:21:07.200Z,1019.74
2018-02-27T01:22:07.166Z,1019.68
2018-02-27T01:23:07.127Z,1019.70
2018-02-27T01:24:07.098Z,1019.71
2018-02-27T01:25:07.067Z,1019.73
2018-02-27T01:26:07.053Z,1019.68
2018-02-27T01:27:07.008Z,1019.71
2018-02-27T01:28:06.990Z,1019.70
2018-02-27T01:29:06.962Z,1019.68
2018-02-27T01:30:06.915Z,1019.68
2018-02-27T01:31:06.888Z,1019.63
2018-02-27T01:32:06.858Z,1019.67
2018-02-27T01:33:06.827Z,1019.63
2018-02-27T01:34:06.809Z,1019.59
2018-02-27T01:35:06.766Z,1019.60
2018-02-27T01:36:06.734Z,1019.61
2018-02-27T01:37:06.708Z,1019.57
2018-02-27T01:38:06.682Z,1019.62
2018-02-27T01:39:06.647Z,1019.59
2018-02-27T01:40:06.616Z,1019.61
2018-02-27T01:41:06.583Z,1019.58
2018-02-27T01:42:06.552Z,1019.55
2018-02-27T01:43:06.530Z,1019.56
2018-02-27T01:44:06.494Z,1019.57
2018-02-27T01:45:06.469Z,1019.55
2018-02-27T01:46:06.535Z,1019.57
2018-02-27T01:47:06.402Z,1019.56
2018-02-27T01:48:06.375Z,1019.57
2018-02-27T01:49:06.391Z,1019.53
2018-02-27T01:50:06.312Z,1019.53
2018-02-27T01:51:06.282Z,1019.52
2018-02-27T01:52:06.259Z,1019.53
2018-02-27T01:53:06.227Z,1019.47
2018-02-27T01:54:06.194Z,1019.49
2018-02-27T01:55:06.172Z,1019.45
2018-02-27T01:56:06.139Z,1019.46
2018-02-27T01:57:06.102Z,1019.44
2018-02-27T01:58:06.070Z,1019.43
2018-02-27T01:59:06.046Z,1019.41
2018-02-27T02:00:06.012Z,1019.41
2018-02-27T02:01:05.988Z,1019.41
2018-02-27T02:02:05.950Z,1019.42
2018-02-27T02:03:05.925Z,1019.38
2018-02-27T02:04:05.902Z,1019.40
2018-02-27T02:05:05.863Z,1019.40
2018-02-27T02:06:05.839Z,1019.38
2018-02-27T02:07:05.802Z,1019.35
2018-02-27T02:08:05.771Z,1019.38
2018-02-27T02:09:05.742Z,1019.33
2018-02-27T02:10:05.713Z,1019.36
2018-02-27T02:11:05.691Z,1019.33
2018-02-27T02:12:05.651Z,1019.35
2018-02-27T02:13:05.625Z,1019.26
2018-02-27T02:14:05.611Z,1019.25
2018-02-27T02:15:05.561Z,1019.24
2018-02-27T02:16:05.531Z,1019.22
2018-02-27T02:17:05.512Z,1019.21
2018-02-27T02:18:05.472Z,1019.24
2018-02-27T02:19:05.441Z,1019.23
2018-02-27T02:20:05.410Z,1019.16
2018-02-27T02:21:05.381Z,1019.16
2018-02-27T02:22:05.349Z,1019.15
2018-02-27T02:23:05.318Z,1019.15
2018-02-27T02:24:05.291Z,1019.14
2018-02-27T02:25:05.322Z,1019.12
2018-02-27T02:26:05.228Z,1019.12
2018-02-27T02:27:05.197Z,1019.14
2018-02-27T02:28:05.320Z,1019.12
2018-02-27T02:29:05.137Z,1019.15
2018-02-27T02:30:05.108Z,1019.13
2018-02-27T02:31:05.126Z,1019.14
2018-02-27T02:32:05.049Z,1019.11
2018-02-27T02:33:05.016Z,1019.11
2018-02-27T02:34:05.037Z,1019.07
2018-02-27T02:35:04.958Z,1019.09
2018-02-27T02:36:04.926Z,1019.07
2018-02-27T02:37:04.897Z,1019.02
2018-02-27T02:38:04.918Z,1019.05
2018-02-27T02:39:04.836Z,1019.02
2018-02-27T02:40:04.810Z,1019.05
2018-02-27T02:41:04.774Z,1019.05
2018-02-27T02:42:04.751Z,1019.04
2018-02-27T02:43:04.715Z,1019.01
2018-02-27T02:44:04.684Z,1019.04
2018-02-27T02:45:04.670Z,1019.00
2018-02-27T02:46:04.624Z,1019.02
2018-02-27T02:47:04.593Z,1019.03
2018-02-27T02:48:04.564Z,1019.00
2018-02-27T02:49:04.534Z,1018.99
2018-02-27T02:50:04.504Z,1018.99
2018-02-27T02:51:04.476Z,1018.97
2018-02-27T02:52:04.445Z,1018.94
2018-02-27T02:53:04.420Z,1018.93
2018-02-27T02:54:04.384Z,1018.90
2018-02-27T02:55:04.356Z,1018.92
2018-02-27T02:56:04.448Z,1018.88
2018-02-27T02:57:04.290Z,1018.87
2018-02-27T02:58:04.270Z,1018.86
2018-02-27T02:59:04.292Z,1018.84
2018-02-27T03:00:04.202Z,1018.84
2018-02-27T03:01:04.168Z,1018.86
2018-02-27T03:02:04.188Z,1018.82
2018-02-27T03:03:04.108Z,1018.81
2018-02-27T03:04:04.078Z,1018.86
2018-02-27T03:05:04.103Z,1018.88
2018-02-27T03:06:04.018Z,1018.87
2018-02-27T03:07:03.987Z,1018.88
2018-02-27T03:08:03.955Z,1018.89
2018-02-27T03:09:03.925Z,1018.88
2018-02-27T03:10:04.042Z,1018.85
2018-02-27T03:11:03.863Z,1018.81
2018-02-27T03:12:03.833Z,1018.80
2018-02-27T03:13:03.821Z,1018.82
2018-02-27T03:14:03.774Z,1018.78
2018-02-27T03:15:03.742Z,1018.79
2018-02-27T03:16:03.765Z,1018.70
2018-02-27T03:17:03.683Z,1018.70
2018-02-27T03:18:03.654Z,1018.72
2018-02-27T03:19:03.623Z,1018.67
2018-02-27T03:20:03.591Z,1018.65
2018-02-27T03:21:03.560Z,1018.67
2018-02-27T03:22:03.530Z,1018.68
2018-02-27T03:23:03.501Z,1018.64
2018-02-27T03:24:03.470Z,1018.61
2018-02-27T03:25:03.438Z,1018.64
2018-02-27T03:26:03.409Z,1018.64
2018-02-27T03:27:03.381Z,1018.61
2018-02-27T03:28:03.349Z,1018.63
2018-02-27T03:29:03.319Z,1018.55
2018-02-27T03:30:03.296Z,1018.53
2018-02-27T03:31:03.257Z,1018.55
2018-02-27T03:32:03.224Z,1018.56
2018-02-27T03:33:03.193Z,1018.54
2018-02-27T03:34:03.164Z,1018.53
2018-02-27T03:35:03.131Z,1018.53
2018-02-27T03:36:03.101Z,1018.50
2018-02-27T03:37:03.073Z,1018.52
2018-02-27T03:38:03.039Z,1018.51
2018-02-27T03:39:03.009Z,1018.51
2018-02-27T03:40:02.987Z,1018.48
2018-02-27T03:41:02.966Z,1018.47
2018-02-27T03:42:02.917Z,1018.49
2018-02-27T03:43:02.902Z,1018.51
2018-02-27T03:44:02.857Z,1018.51
2018-02-27T03:45:02.832Z,1018.45
2018-02-27T03:46:02.795Z,1018.48
2018-02-27T03:47:02.791Z,1018.45
2018-02-27T03:48:02.737Z,1018.48
2018-02-27T03:49:02.701Z,1018.40
2018-02-27T03:50:02.701Z,1018.41
2018-02-27T03:51:02.642Z,1018.40
2018-02-27T03:52:02.608Z,1018.40
2018-02-27T03:53:02.581Z,1018.37
2018-02-27T03:54:02.548Z,1018.40
2018-02-27T03:55:02.521Z,1018.40
2018-02-27T03:56:02.496Z,1018.44
2018-02-27T03:57:02.463Z,1018.43
2018-02-27T03:58:02.432Z,1018.38
2018-02-27T03:59:02.395Z,1018.39
2018-02-27T04:00:02.366Z,1018.38
2018-02-27T04:01:02.337Z,1018.41
2018-02-27T04:02:02.313Z,1018.40
2018-02-27T04:03:02.271Z,1018.38
2018-02-27T04:04:02.285Z,1018.39
2018-02-27T04:05:02.213Z,1018.41
2018-02-27T04:06:02.184Z,1018.35
2018-02-27T04:07:02.182Z,1018.33
2018-02-27T04:08:02.118Z,1018.39
2018-02-27T04:09:02.092Z,1018.42
2018-02-27T04:10:02.059Z,1018.42
2018-02-27T04:11:02.030Z,1018.37
2018-02-27T04:12:01.997Z,1018.40
2018-02-27T04:13:01.978Z,1018.36
2018-02-27T04:14:01.938Z,1018.40
2018-02-27T04:15:01.907Z,1018.34
2018-02-27T04:16:01.873Z,1018.37
2018-02-27T04:17:01.844Z,1018.35
2018-02-27T04:18:01.815Z,1018.36
2018-02-27T04:19:01.783Z,1018.36
2018-02-27T04:20:01.752Z,1018.35
2018-02-27T04:21:01.718Z,1018.33
2018-02-27T04:22:01.693Z,1018.39
2018-02-27T04:23:01.656Z,1018.34
2018-02-27T04:24:01.637Z,1018.34
2018-02-27T04:25:01.598Z,1018.32
2018-02-27T04:26:01.565Z,1018.29
2018-02-27T04:27:01.534Z,1018.33
2018-02-27T04:28:01.502Z,1018.32
2018-02-27T04:29:01.588Z,1018.30
2018-02-27T04:30:01.441Z,1018.29
2018-02-27T04:31:01.412Z,1018.27
2018-02-27T04:32:01.390Z,1018.29
2018-02-27T04:33:01.351Z,1018.28
2018-02-27T04:34:01.315Z,1018.25
2018-02-27T04:35:01.304Z,1018.27
2018-02-27T04:36:01.259Z,1018.28
2018-02-27T04:37:01.224Z,1018.27
2018-02-27T04:38:01.195Z,1018.25
2018-02-27T04:39:01.165Z,1018.29
2018-02-27T04:40:01.133Z,1018.28
2018-02-27T04:41:01.102Z,1018.25
2018-02-27T04:42:01.068Z,1018.24
2018-02-27T04:43:01.038Z,1018.31
2018-02-27T04:44:01.009Z,1018.27
2018-02-27T04:45:00.979Z,1018.28
2018-02-27T04:46:00.972Z,1018.31
2018-02-27T04:47:00.922Z,1018.29
2018-02-27T04:48:00.885Z,1018.30
2018-02-27T04:49:00.862Z,1018.33
2018-02-27T04:50:00.830Z,1018.33
2018-02-27T04:51:00.792Z,1018.33
2018-02-27T04:52:00.766Z,1018.33
2018-02-27T04:53:00.731Z,1018.36
2018-02-27T04:54:00.698Z,1018.38
2018-02-27T04:55:00.668Z,1018.35
2018-02-27T04:56:00.692Z,1018.34
2018-02-27T04:57:00.607Z,1018.30
2018-02-27T04:58:00.577Z,1018.27
2018-02-27T04:59:00.547Z,1018.33
2018-02-27T05:00:00.514Z,1018.38
2018-02-27T05:01:00.487Z,1018.34
2018-02-27T05:02:00.451Z,1018.34
2018-02-27T05:03:00.418Z,1018.34
2018-02-27T05:04:00.389Z,1018.32
2018-02-27T05:05:00.361Z,1018.34
2018-02-27T05:06:00.327Z,1018.33
2018-02-27T05:07:00.296Z,1018.33
2018-02-27T05:08:00.265Z,1018.35
2018-02-27T05:09:00.235Z,1018.32
2018-02-27T05:10:00.204Z,1018.33
2018-02-27T05:11:00.174Z,1018.31
2018-02-27T05:12:00.145Z,1018.31
2018-02-27T05:13:00.110Z,1018.34
2018-02-27T05:14:00.237Z,1018.32
2018-02-27T05:15:00.058Z,1018.36
2018-02-27T05:16:00.017Z,1018.32
2018-02-27T05:17:00.055Z,1018.34
2018-02-27T05:17:59.956Z,1018.32
2018-02-27T05:18:59.925Z,1018.35
2018-02-27T05:19:59.910Z,1018.34
2018-02-27T05:20:59.865Z,1018.32
2018-02-27T05:21:59.833Z,1018.35
2018-02-27T05:22:59.812Z,1018.34
2018-02-27T05:23:59.773Z,1018.32
2018-02-27T05:24:59.747Z,1018.30
2018-02-27T05:25:59.708Z,1018.29
2018-02-27T05:26:59.676Z,1018.31
2018-02-27T05:27:59.646Z,1018.27
2018-02-27T05:28:59.616Z,1018.30
2018-02-27T05:29:59.581Z,1018.27
2018-02-27T05:30:59.561Z,1018.31
2018-02-27T05:31:59.526Z,1018.28
2018-02-27T05:32:59.512Z,1018.29
2018-02-27T05:33:59.468Z,1018.28
2018-02-27T05:34:59.431Z,1018.25
2018-02-27T05:35:59.396Z,1018.24
2018-02-27T05:36:59.377Z,1018.26
2018-02-27T05:37:59.335Z,1018.23
2018-02-27T05:38:59.304Z,1018.23
2018-02-27T05:39:59.281Z,1018.21
2018-02-27T05:40:59.244Z,1018.24
2018-02-27T05:41:59.210Z,1018.20
2018-02-27T05:42:59.183Z,1018.24
2018-02-27T05:43:59.158Z,1018.24
2018-02-27T05:44:59.120Z,1018.21
2018-02-27T05:45:59.092Z,1018.19
2018-02-27T05:46:59.060Z,1018.18
2018-02-27T05:47:59.030Z,1018.16
2018-02-27T05:48:59.003Z,1018.09
2018-02-27T05:49:58.972Z,1018.17
2018-02-27T05:50:58.932Z,1018.15
2018-02-27T05:51:58.910Z,1018.22
2018-02-27T05:52:58.874Z,1018.24
2018-02-27T05:53:58.839Z,1018.24
2018-02-27T05:54:58.808Z,1018.29
2018-02-27T05:55:58.782Z,1018.23
2018-02-27T05:56:58.751Z,1018.22
2018-02-27T05:57:58.722Z,1018.20
2018-02-27T05:58:58.700Z,1018.20
2018-02-27T05:59:58.673Z,1018.21
2018-02-27T06:00:58.626Z,1018.21
2018-02-27T06:01:58.631Z,1018.23
2018-02-27T06:02:58.561Z,1018.23
2018-02-27T06:03:58.530Z,1018.28
2018-02-27T06:04:58.518Z,1018.27
2018-02-27T06:05:58.469Z,1018.29
2018-02-27T06:06:58.448Z,1018.34
2018-02-27T06:07:58.460Z,1018.36
2018-02-27T06:08:58.398Z,1018.41
2018-02-27T06:09:58.343Z,1018.41
2018-02-27T06:10:58.319Z,1018.45
2018-02-27T06:11:58.282Z,1018.43
2018-02-27T06:12:58.252Z,1018.45
2018-02-27T06:13:58.231Z,1018.44
2018-02-27T06:14:58.195Z,1018.42
2018-02-27T06:15:58.159Z,1018.42
2018-02-27T06:16:58.141Z,1018.42
2018-02-27T06:17:58.096Z,1018.45
2018-02-27T06:18:58.073Z,1018.41
2018-02-27T06:19:58.037Z,1018.45
2018-02-27T06:20:58.005Z,1018.46
2018-02-27T06:21:58.007Z,1018.44
2018-02-27T06:22:57.941Z,1018.43
2018-02-27T06:23:57.912Z,1018.45
2018-02-27T06:24:57.955Z,1018.47
2018-02-27T06:25:57.850Z,1018.45
2018-02-27T06:26:57.818Z,1018.43
2018-02-27T06:27:57.794Z,1018.44
2018-02-27T06:28:57.766Z,1018.43
2018-02-27T06:29:57.740Z,1018.47
2018-02-27T06:30:57.702Z,1018.46
2018-02-27T06:31:57.674Z,1018.47
2018-02-27T06:32:57.635Z,1018.51
2018-02-27T06:33:57.605Z,1018.47
2018-02-27T06:34:57.575Z,1018.44
2018-02-27T06:35:57.539Z,1018.42
2018-02-27T06:36:57.515Z,1018.47
2018-02-27T06:37:57.476Z,1018.47
2018-02-27T06:38:57.455Z,1018.45
2018-02-27T06:39:57.416Z,1018.48
2018-02-27T06:40:57.389Z,1018.45
2018-02-27T06:41:57.357Z,1018.49
2018-02-27T06:42:57.323Z,1018.50
2018-02-27T06:43:57.304Z,1018.48
2018-02-27T06:44:57.265Z,1018.49
2018-02-27T06:45:57.254Z,1018.52
2018-02-27T06:46:57.206Z,1018.48
2018-02-27T06:47:57.173Z,1018.51
2018-02-27T06:48:57.138Z,1018.51
2018-02-27T06:49:57.249Z,1018.52
2018-02-27T06:50:57.080Z,1018.51
2018-02-27T06:51:57.047Z,1018.48
2018-02-27T06:52:57.137Z,1018.53
2018-02-27T06:53:56.986Z,1018.51
2018-02-27T06:54:56.956Z,1018.51
2018-02-27T06:55:56.983Z,1018.46
2018-02-27T06:56:56.894Z,1018.48
2018-02-27T06:57:56.861Z,1018.45
2018-02-27T06:58:56.854Z,1018.45
2018-02-27T06:59:56.805Z,1018.47
2018-02-27T07:00:56.774Z,1018.42
2018-02-27T07:01:56.747Z,1018.50
2018-02-27T07:02:56.711Z,1018.51
2018-02-27T07:03:56.688Z,1018.53
2018-02-27T07:04:56.646Z,1018.50
2018-02-27T07:05:56.615Z,1018.51
2018-02-27T07:06:56.584Z,1018.49
2018-02-27T07:07:56.554Z,1018.44
2018-02-27T07:08:56.532Z,1018.47
2018-02-27T07:09:56.502Z,1018.49
2018-02-27T07:10:56.462Z,1018.47
2018-02-27T07:11:56.432Z,1018.48
2018-02-27T07:12:56.400Z,1018.47
2018-02-27T07:13:56.369Z,1018.44
2018-02-27T07:14:56.338Z,1018.46
2018-02-27T07:15:56.313Z,1018.47
2018-02-27T07:16:56.282Z,1018.43
2018-02-27T07:17:56.248Z,1018.47
2018-02-27T07:18:56.218Z,1018.48
2018-02-27T07:19:56.186Z,1018.45
2018-02-27T07:20:56.163Z,1018.50
2018-02-27T07:21:56.124Z,1018.49
2018-02-27T07:22:56.094Z,1018.49
2018-02-27T07:23:56.064Z,1018.49
2018-02-27T07:24:56.032Z,1018.53
2018-02-27T07:25:56.008Z,1018.57
2018-02-27T07:26:55.970Z,1018.53
2018-02-27T07:27:55.959Z,1018.57
2018-02-27T07:28:55.909Z,1018.51
2018-02-27T07:29:55.897Z,1018.54
2018-02-27T07:30:55.856Z,1018.47
2018-02-27T07:31:55.823Z,1018.45
2018-02-27T07:32:55.803Z,1018.41
2018-02-27T07:33:55.757Z,1018.43
2018-02-27T07:34:55.836Z,1018.48
2018-02-27T07:35:55.701Z,1018.49
2018-02-27T07:36:55.670Z,1018.51
2018-02-27T07:37:55.735Z,1018.50
2018-02-27T07:38:55.610Z,1018.46
2018-02-27T07:39:55.576Z,1018.45
2018-02-27T07:40:55.616Z,1018.50
2018-02-27T07:41:55.517Z,1018.45
2018-02-27T07:42:55.488Z,1018.49
2018-02-27T07:43:55.463Z,1018.50
2018-02-27T07:44:55.428Z,1018.50
2018-02-27T07:45:55.395Z,1018.54
2018-02-27T07:46:55.365Z,1018.55
2018-02-27T07:47:55.344Z,1018.56
2018-02-27T07:48:55.316Z,1018.51
2018-02-27T07:49:55.286Z,1018.49
2018-02-27T07:50:55.248Z,1018.53
2018-02-27T07:51:55.217Z,1018.54
2018-02-27T07:52:55.187Z,1018.52
2018-02-27T07:53:55.156Z,1018.53
2018-02-27T07:54:55.129Z,1018.52
2018-02-27T07:55:55.105Z,1018.62
2018-02-27T07:56:55.083Z,1018.56
2018-02-27T07:57:55.040Z,1018.59
2018-02-27T07:58:55.015Z,1018.55
2018-02-27T07:59:54.987Z,1018.51
2018-02-27T08:00:54.952Z,1018.51
2018-02-27T08:01:54.943Z,1018.52
2018-02-27T08:02:54.893Z,1018.48
2018-02-27T08:03:54.876Z,1018.52
2018-02-27T08:04:54.835Z,1018.50
2018-02-27T08:05:54.803Z,1018.50
2018-02-27T08:06:54.776Z,1018.51
2018-02-27T08:07:54.748Z,1018.51
2018-02-27T08:08:54.721Z,1018.51
2018-02-27T08:09:54.688Z,1018.51
2018-02-27T08:10:54.662Z,1018.46
2018-02-27T08:11:54.627Z,1018.45
2018-02-27T08:12:54.602Z,1018.47
2018-02-27T08:13:54.572Z,1018.46
2018-02-27T08:14:54.545Z,1018.44
2018-02-27T08:15:54.512Z,1018.43
2018-02-27T08:16:54.486Z,1018.36
2018-02-27T08:17:54.462Z,1018.37
2018-02-27T08:18:54.433Z,1018.38
2018-02-27T08:19:54.496Z,1018.38
2018-02-27T08:20:54.372Z,1018.39
2018-02-27T08:21:54.364Z,1018.37
2018-02-27T08:22:54.421Z,1018.36
2018-02-27T08:23:54.287Z,1018.33
2018-02-27T08:24:54.250Z,1018.33
2018-02-27T08:25:54.254Z,1018.32
2018-02-27T08:26:54.194Z,1018.29
2018-02-27T08:27:54.165Z,1018.29
2018-02-27T08:28:54.135Z,1018.34
2018-02-27T08:29:54.104Z,1018.35
2018-02-27T08:30:54.075Z,1018.30
2018-02-27T08:31:54.050Z,1018.34
2018-02-27T08:32:54.044Z,1018.35
2018-02-27T08:33:53.989Z,1018.37
2018-02-27T08:34:53.958Z,1018.35
2018-02-27T08:35:53.929Z,1018.38
2018-02-27T08:36:53.898Z,1018.32
2018-02-27T08:37:53.868Z,1018.35
2018-02-27T08:38:53.841Z,1018.36
2018-02-27T08:39:53.819Z,1018.28
2018-02-27T08:40:53.781Z,1018.29
2018-02-27T08:41:53.750Z,1018.31
2018-02-27T08:42:53.722Z,1018.36
2018-02-27T08:43:53.692Z,1018.35
2018-02-27T08:44:53.662Z,1018.33
2018-02-27T08:45:53.631Z,1018.27
2018-02-27T08:46:53.602Z,1018.29
2018-02-27T08:47:53.579Z,1018.25
2018-02-27T08:48:53.544Z,1018.25
2018-02-27T08:49:53.519Z,1018.25
2018-02-27T08:50:53.537Z,1018.26
2018-02-27T08:51:53.456Z,1018.24
2018-02-27T08:52:53.435Z,1018.19
2018-02-27T08:53:53.405Z,1018.20
2018-02-27T08:54:53.366Z,1018.24
2018-02-27T08:55:53.335Z,1018.20
2018-02-27T08:56:53.306Z,1018.20
2018-02-27T08:57:53.274Z,1018.10
2018-02-27T08:58:53.245Z,1018.15
2018-02-27T08:59:53.218Z,1018.18
2018-02-27T09:00:53.194Z,1018.34
2018-02-27T09:01:53.158Z,1018.43
2018-02-27T09:02:53.136Z,1018.50
2018-02-27T09:03:53.104Z,1018.51
2018-02-27T09:04:53.085Z,1018.51
2018-02-27T09:05:53.048Z,1018.50
2018-02-27T09:06:53.019Z,1018.50
2018-02-27T09:07:52.996Z,1018.48
2018-02-27T09:08:52.956Z,1018.46
2018-02-27T09:09:52.937Z,1018.56
2018-02-27T09:10:52.915Z,1018.56
2018-02-27T09:11:52.881Z,1018.52
2018-02-27T09:12:52.852Z,1018.58
2018-02-27T09:13:52.823Z,1018.59
2018-02-27T09:14:52.801Z,1018.45
2018-02-27T09:15:52.773Z,1018.39
2018-02-27T09:16:52.744Z,1018.51
2018-02-27T09:17:52.723Z,1018.36
2018-02-27T09:18:52.696Z,1018.35
2018-02-27T09:19:52.672Z,1018.42
2018-02-27T09:20:52.648Z,1018.41
2018-02-27T09:21:52.623Z,1018.48
2018-02-27T09:22:52.601Z,1018.49
2018-02-27T09:23:52.587Z,1018.49
2018-02-27T09:24:52.556Z,1018.43
2018-02-27T09:25:52.534Z,1018.45
2018-02-27T09:26:52.511Z,1018.48
2018-02-27T09:27:52.501Z,1018.41
2018-02-27T09:28:52.465Z,1018.43
2018-02-27T09:29:52.453Z,1018.34
2018-02-27T09:30:52.420Z,1018.24
2018-02-27T09:31:52.410Z,1018.24
2018-02-27T09:32:52.378Z,1018.25
2018-02-27T09:33:52.356Z,1018.27
2018-02-27T09:34:52.337Z,1018.21
2018-02-27T09:35:52.330Z,1018.21
2018-02-27T09:36:52.288Z,1018.09
2018-02-27T09:37:52.291Z,1018.02
2018-02-27T09:38:52.247Z,1018.02
2018-02-27T09:39:52.222Z,1018.01
2018-02-27T09:40:52.358Z,1017.98
2018-02-27T09:41:52.182Z,1018.00
2018-02-27T09:42:52.168Z,1017.94
2018-02-27T09:43:52.156Z,1017.88
2018-02-27T09:44:52.110Z,1017.94
2018-02-27T09:45:52.135Z,1017.91
2018-02-27T09:46:52.059Z,1017.91
2018-02-27T09:47:52.039Z,1017.91
2018-02-27T09:48:52.013Z,1017.95
2018-02-27T09:49:51.988Z,1017.91
2018-02-27T09:50:51.964Z,1017.92
2018-02-27T09:51:51.940Z,1017.92
2018-02-27T09:52:51.913Z,1017.95
2018-02-27T09:53:51.891Z,1017.94
2018-02-27T09:54:51.868Z,1017.94
2018-02-27T09:55:51.844Z,1018.00
2018-02-27T09:56:51.817Z,1017.95
2018-02-27T09:57:51.799Z,1018.01
2018-02-27T09:58:51.767Z,1017.91
2018-02-27T09:59:51.743Z,1017.91
2018-02-27T10:00:51.717Z,1017.94
2018-02-27T10:01:51.692Z,1018.07
2018-02-27T10:02:51.670Z,1017.96
2018-02-27T10:03:51.640Z,1017.89
2018-02-27T10:04:51.616Z,1017.83
2018-02-27T10:05:51.610Z,1017.84
2018-02-27T10:06:51.568Z,1017.84
2018-02-27T10:07:51.542Z,1017.83
2018-02-27T10:08:51.564Z,1017.83
2018-02-27T10:09:51.498Z,1017.86
2018-02-27T10:10:51.467Z,1017.86
2018-02-27T10:11:51.445Z,1017.88
2018-02-27T10:12:51.416Z,1017.84
2018-02-27T10:13:51.388Z,1017.82
2018-02-27T10:14:51.369Z,1017.79
2018-02-27T10:15:51.350Z,1017.81
2018-02-27T10:16:51.316Z,1017.85
2018-02-27T10:17:51.287Z,1017.84
2018-02-27T10:18:51.272Z,1017.78
2018-02-27T10:19:51.348Z,1017.76
2018-02-27T10:20:51.215Z,1017.81
2018-02-27T10:21:51.196Z,1017.82
2018-02-27T10:22:51.166Z,1017.83
2018-02-27T10:23:51.137Z,1017.76
2018-02-27T10:24:51.114Z,1017.80
2018-02-27T10:25:51.086Z,1017.81
2018-02-27T10:26:51.064Z,1017.77
2018-02-27T10:27:51.035Z,1017.79
2018-02-27T10:28:51.027Z,1017.78
2018-02-27T10:29:50.986Z,1017.71
2018-02-27T10:30:50.962Z,1017.77
2018-02-27T10:31:50.940Z,1017.74
2018-02-27T10:32:50.914Z,1017.76
2018-02-27T10:33:50.885Z,1017.72
2018-02-27T10:34:50.862Z,1017.73
2018-02-27T10:35:50.860Z,1017.71
2018-02-27T10:36:50.811Z,1017.76
2018-02-27T10:37:50.786Z,1017.71
2018-02-27T10:38:50.770Z,1017.73
2018-02-27T10:39:50.742Z,1017.72
2018-02-27T10:40:50.715Z,1017.68
2018-02-27T10:41:50.738Z,1017.66
2018-02-27T10:42:50.666Z,1017.65
2018-02-27T10:43:50.635Z,1017.68
2018-02-27T10:44:50.695Z,1017.67
2018-02-27T10:45:50.591Z,1017.66
2018-02-27T10:46:50.560Z,1017.64
2018-02-27T10:47:50.542Z,1017.64
2018-02-27T10:48:50.512Z,1017.67
2018-02-27T10:49:50.483Z,1017.66
2018-02-27T10:50:50.469Z,1017.62
2018-02-27T10:51:50.456Z,1017.62
2018-02-27T10:52:50.411Z,1017.62
2018-02-27T10:53:50.393Z,1017.60
2018-02-27T10:54:50.360Z,1017.63
2018-02-27T10:55:50.334Z,1017.58
2018-02-27T10:56:50.309Z,1017.59
2018-02-27T10:57:50.283Z,1017.62
2018-02-27T10:58:50.260Z,1017.60
2018-02-27T10:59:50.234Z,1017.61
2018-02-27T11:00:50.213Z,1017.58
2018-02-27T11:01:50.186Z,1017.58
2018-02-27T11:02:50.157Z,1017.59
2018-02-27T11:03:50.149Z,1017.57
2018-02-27T11:04:50.120Z,1017.50
2018-02-27T11:05:50.086Z,1017.52
2018-02-27T11:06:50.059Z,1017.49
2018-02-27T11:07:50.033Z,1017.49
2018-02-27T11:08:50.008Z,1017.53
2018-02-27T11:09:49.983Z,1017.48
2018-02-27T11:10:49.971Z,1017.45
2018-02-27T11:11:49.930Z,1017.53
2018-02-27T11:12:49.916Z,1017.44
2018-02-27T11:13:49.878Z,1017.41
2018-02-27T11:14:49.855Z,1017.40
2018-02-27T11:15:49.834Z,1017.42
2018-02-27T11:16:49.806Z,1017.39
2018-02-27T11:17:49.800Z,1017.39
2018-02-27T11:18:49.764Z,1017.36
2018-02-27T11:19:49.728Z,1017.34
2018-02-27T11:20:49.769Z,1017.34
2018-02-27T11:21:49.671Z,1017.36
2018-02-27T11:22:49.649Z,1017.35
2018-02-27T11:23:49.633Z,1017.32
2018-02-27T11:24:49.600Z,1017.26
2018-02-27T11:25:49.577Z,1017.29
2018-02-27T11:26:49.548Z,1017.27
2018-02-27T11:27:49.522Z,1017.29
2018-02-27T11:28:49.497Z,1017.25
2018-02-27T11:29:49.479Z,1017.24
2018-02-27T11:30:49.440Z,1017.24
2018-02-27T11:31:49.415Z,1017.31
2018-02-27T11:32:49.393Z,1017.27
2018-02-27T11:33:49.366Z,1017.24
2018-02-27T11:34:49.338Z,1017.24
2018-02-27T11:35:49.323Z,1017.23
2018-02-27T11:36:49.289Z,1017.19
2018-02-27T11:37:49.259Z,1017.22
2018-02-27T11:38:49.239Z,1017.20
2018-02-27T11:39:49.209Z,1017.20
2018-02-27T11:40:49.185Z,1017.20
2018-02-27T11:41:49.156Z,1017.21
2018-02-27T11:42:49.183Z,1017.16
2018-02-27T11:43:49.106Z,1017.15
2018-02-27T11:44:49.083Z,1017.14
2018-02-27T11:45:49.079Z,1017.12
2018-02-27T11:46:49.028Z,1017.15
2018-02-27T11:47:49.004Z,1017.12
2018-02-27T11:48:48.983Z,1017.15
2018-02-27T11:49:48.953Z,1017.16
2018-02-27T11:50:48.923Z,1017.12
2018-02-27T11:51:48.906Z,1017.06
2018-02-27T11:52:48.876Z,1017.08
2018-02-27T11:53:48.845Z,1017.09
2018-02-27T11:54:48.821Z,1017.05
2018-02-27T11:55:48.804Z,1017.04
2018-02-27T11:56:48.793Z,1017.02
2018-02-27T11:57:48.752Z,1017.04
2018-02-27T11:58:48.722Z,1017.03
2018-02-27T11:59:48.730Z,1017.03
2018-02-27T12:00:48.673Z,1017.01
2018-02-27T12:01:48.645Z,1016.98
2018-02-27T12:02:48.672Z,1017.00
2018-02-27T12:03:48.594Z,1017.01
2018-02-27T12:04:48.571Z,1017.00